createdAt,value
2018-12-10T00:00:10.061Z,6.18
2018-12-10T00:02:37.564Z,6.32
2018-12-10T00:05:06.103Z,6.33
2018-12-10T00:07:33.579Z,6.39
2018-12-10T00:10:01.054Z,6.37
2018-12-10T00:12:28.515Z,6.50
2018-12-10T00:14:55.992Z,6.61
2018-12-10T00:17:23.443Z,6.89
2018-12-10T00:19:50.911Z,6.85
2018-12-10T00:22:18.381Z,6.60
2018-12-10T00:24:45.872Z,6.15
2018-12-10T00:27:13.348Z,6.02
2018-12-10T00:29:40.797Z,5.94
2018-12-10T00:32:08.311Z,5.75
2018-12-10T00:34:35.762Z,5.78
2018-12-10T00:37:03.243Z,5.92
2018-12-10T00:39:30.734Z,6.05
2018-12-10T00:41:58.193Z,6.19
2018-12-10T00:44:25.659Z,6.14
2018-12-10T00:46:53.127Z,6.27
2018-12-10T00:49:20.618Z,6.33
2018-12-10T00:51:48.073Z,6.49
2018-12-10T00:54:15.748Z,6.65
2018-12-10T00:56:43.235Z,6.42
2018-12-10T00:59:11.371Z,6.18
2018-12-10T01:01:38.826Z,5.97
2018-12-10T01:04:07.072Z,5.84
2018-12-10T01:06:34.545Z,5.88
2018-12-10T01:09:02.021Z,5.87
2018-12-10T01:11:29.467Z,5.84
2018-12-10T01:13:56.940Z,5.78
2018-12-10T01:16:24.492Z,5.77
2018-12-10T01:18:51.986Z,5.92
2018-12-10T01:21:19.442Z,5.85
2018-12-10T01:23:46.898Z,6.02
2018-12-10T01:26:14.408Z,6.16
2018-12-10T01:28:41.854Z,6.54
2018-12-10T01:31:09.347Z,6.39
2018-12-10T01:33:37.087Z,6.05
2018-12-10T01:36:04.578Z,5.86
2018-12-10T01:38:32.029Z,5.59
2018-12-10T01:40:59.507Z,5.32
2018-12-10T01:43:26.987Z,5.27
2018-12-10T01:45:54.471Z,5.30
2018-12-10T01:48:21.913Z,5.35
2018-12-10T01:50:49.641Z,5.35
2018-12-10T01:53:17.107Z,5.39
2018-12-10T01:55:44.577Z,5.39
2018-12-10T01:58:12.009Z,5.53
2018-12-10T02:00:39.492Z,5.76
2018-12-10T02:03:07.279Z,6.17
2018-12-10T02:05:34.724Z,6.28
2018-12-10T02:08:02.197Z,5.97
2018-12-10T02:10:29.699Z,5.71
2018-12-10T02:12:57.114Z,5.51
2018-12-10T02:15:24.634Z,5.46
2018-12-10T02:17:52.108Z,5.36
2018-12-10T02:20:19.577Z,5.43
2018-12-10T02:22:47.049Z,5.65
2018-12-10T02:25:14.492Z,5.85
2018-12-10T02:27:41.963Z,5.76
2018-12-10T02:30:09.515Z,5.64
2018-12-10T02:32:37.368Z,5.68
2018-12-10T02:35:04.900Z,5.90
2018-12-10T02:37:32.412Z,6.09
2018-12-10T02:39:59.909Z,6.41
2018-12-10T02:42:27.354Z,6.28
2018-12-10T02:44:54.783Z,6.06
2018-12-10T02:47:22.249Z,5.73
2018-12-10T02:49:49.730Z,5.72
2018-12-10T02:52:17.238Z,5.41
2018-12-10T02:54:45.224Z,5.32
2018-12-10T02:57:12.703Z,5.33
2018-12-10T02:59:40.201Z,5.45
2018-12-10T03:02:07.679Z,5.24
2018-12-10T03:04:35.138Z,5.15
2018-12-10T03:07:02.661Z,5.35
2018-12-10T03:09:30.244Z,5.45
2018-12-10T03:11:57.694Z,5.65
2018-12-10T03:14:25.198Z,5.95
2018-12-10T03:16:52.682Z,5.99
2018-12-10T03:19:20.127Z,5.79
2018-12-10T03:21:47.601Z,5.51
2018-12-10T03:24:15.026Z,5.35
2018-12-10T03:26:42.503Z,5.23
2018-12-10T03:29:09.967Z,5.23
2018-12-10T03:31:37.853Z,5.21
2018-12-10T03:34:06.097Z,5.39
2018-12-10T03:36:33.558Z,5.52
2018-12-10T03:39:01.042Z,5.56
2018-12-10T03:41:28.691Z,5.65
2018-12-10T03:43:56.142Z,5.70
2018-12-10T03:46:23.852Z,5.96
2018-12-10T03:48:51.344Z,6.09
2018-12-10T03:51:18.786Z,6.25
2018-12-10T03:53:46.257Z,6.09
2018-12-10T03:56:13.725Z,5.93
2018-12-10T03:58:41.409Z,5.62
2018-12-10T04:01:08.881Z,5.44
2018-12-10T04:03:36.372Z,5.35
2018-12-10T04:06:03.913Z,5.30
2018-12-10T04:08:31.383Z,5.46
2018-12-10T04:10:58.851Z,5.67
2018-12-10T04:13:26.322Z,5.73
2018-12-10T04:15:53.811Z,5.80
2018-12-10T04:18:21.306Z,5.97
2018-12-10T04:20:48.750Z,6.02
2018-12-10T04:23:16.339Z,6.16
2018-12-10T04:25:43.792Z,6.48
2018-12-10T04:28:11.255Z,6.48
2018-12-10T04:30:38.728Z,6.21
2018-12-10T04:33:06.229Z,5.92
2018-12-10T04:35:33.682Z,5.61
2018-12-10T04:38:01.274Z,5.45
2018-12-10T04:40:28.746Z,5.42
2018-12-10T04:42:56.205Z,5.46
2018-12-10T04:45:23.691Z,5.56
2018-12-10T04:47:51.133Z,5.79
2018-12-10T04:50:18.577Z,5.98
2018-12-10T04:52:46.052Z,6.00
2018-12-10T04:55:13.505Z,5.97
2018-12-10T04:57:40.989Z,6.18
2018-12-10T05:00:08.688Z,6.35
2018-12-10T05:02:36.131Z,6.59
2018-12-10T05:05:03.881Z,6.44
2018-12-10T05:07:31.350Z,5.99
2018-12-10T05:09:58.798Z,5.76
2018-12-10T05:12:26.295Z,5.59
2018-12-10T05:14:53.789Z,5.52
2018-12-10T05:17:21.214Z,5.51
2018-12-10T05:19:48.653Z,5.50
2018-12-10T05:22:16.133Z,5.62
2018-12-10T05:24:43.569Z,5.67
2018-12-10T05:27:11.085Z,5.76
2018-12-10T05:29:38.519Z,5.80
2018-12-10T05:32:06.012Z,6.07
2018-12-10T05:34:33.489Z,6.33
2018-12-10T05:37:00.944Z,6.60
2018-12-10T05:39:28.391Z,6.65
2018-12-10T05:41:55.859Z,6.48
2018-12-10T05:44:23.306Z,6.18
2018-12-10T05:46:50.787Z,5.93
2018-12-10T05:49:18.223Z,5.74
2018-12-10T05:51:45.708Z,5.66
2018-12-10T05:54:13.195Z,5.47
2018-12-10T05:56:40.773Z,5.41
2018-12-10T05:59:08.419Z,5.37
2018-12-10T06:01:35.928Z,5.29
2018-12-10T06:04:03.399Z,5.42
2018-12-10T06:06:30.856Z,5.71
2018-12-10T06:08:58.351Z,5.82
2018-12-10T06:11:25.807Z,5.99
2018-12-10T06:13:53.282Z,6.20
2018-12-10T06:16:20.729Z,6.07
2018-12-10T06:18:48.178Z,5.89
2018-12-10T06:21:15.674Z,5.71
2018-12-10T06:23:43.129Z,5.44
2018-12-10T06:26:10.581Z,5.23
2018-12-10T06:28:38.479Z,5.07
2018-12-10T06:31:06.041Z,5.10
2018-12-10T06:33:33.514Z,5.15
2018-12-10T06:36:00.996Z,5.27
2018-12-10T06:38:28.470Z,5.39
2018-12-10T06:40:55.896Z,5.43
2018-12-10T06:43:23.420Z,5.43
2018-12-10T06:45:50.872Z,5.62
2018-12-10T06:48:18.333Z,5.86
2018-12-10T06:50:45.806Z,5.87
2018-12-10T06:53:13.249Z,5.47
2018-12-10T06:55:40.717Z,5.19
2018-12-10T06:58:08.502Z,4.84
2018-12-10T07:00:35.973Z,4.79
2018-12-10T07:03:03.518Z,4.85
2018-12-10T07:05:30.956Z,4.97
2018-12-10T07:07:58.446Z,5.09
2018-12-10T07:10:25.882Z,5.18
2018-12-10T07:12:53.372Z,5.34
2018-12-10T07:15:20.806Z,5.58
2018-12-10T07:17:48.302Z,5.72
2018-12-10T07:20:15.738Z,5.83
2018-12-10T07:22:43.231Z,6.02
2018-12-10T07:25:10.728Z,6.34
2018-12-10T07:27:38.624Z,6.04
2018-12-10T07:30:07.691Z,5.65
2018-12-10T07:32:35.117Z,5.23
2018-12-10T07:35:02.572Z,5.06
2018-12-10T07:37:30.032Z,5.04
2018-12-10T07:39:57.530Z,5.08
2018-12-10T07:42:24.979Z,5.04
2018-12-10T07:44:52.464Z,5.03
2018-12-10T07:47:19.914Z,4.97
2018-12-10T07:49:47.383Z,5.10
2018-12-10T07:52:14.879Z,5.17
2018-12-10T07:54:42.360Z,5.22
2018-12-10T07:57:09.853Z,5.48
2018-12-10T07:59:37.321Z,5.85
2018-12-10T08:02:04.781Z,5.97
2018-12-10T08:04:32.277Z,5.73
2018-12-10T08:06:59.755Z,5.62
2018-12-10T08:09:27.191Z,5.37
2018-12-10T08:11:54.662Z,5.37
2018-12-10T08:14:22.097Z,5.30
2018-12-10T08:16:49.585Z,5.49
2018-12-10T08:19:17.040Z,5.67
2018-12-10T08:21:44.525Z,5.75
2018-12-10T08:24:11.965Z,5.70
2018-12-10T08:26:39.468Z,5.86
2018-12-10T08:31:36.420Z,6.08
2018-12-10T08:34:04.007Z,6.41
2018-12-10T08:35:46.122Z,5.87
2018-12-10T08:36:31.500Z,7.28
2018-12-10T08:38:58.956Z,7.52
2018-12-10T08:41:26.440Z,6.98
2018-12-10T08:43:53.881Z,6.57
2018-12-10T08:46:21.385Z,6.25
2018-12-10T08:48:48.834Z,6.09
2018-12-10T08:51:16.481Z,6.20
2018-12-10T08:53:44.096Z,6.36
2018-12-10T08:56:11.537Z,6.51
2018-12-10T08:58:38.994Z,6.51
2018-12-10T09:01:06.671Z,6.65
2018-12-10T09:03:34.366Z,6.70
2018-12-10T09:06:01.807Z,6.82
2018-12-10T09:08:29.309Z,6.93
2018-12-10T09:10:56.739Z,7.27
2018-12-10T09:13:24.340Z,7.34
2018-12-10T09:15:51.820Z,7.06
2018-12-10T09:18:19.407Z,6.71
2018-12-10T09:20:46.839Z,6.56
2018-12-10T09:23:14.304Z,6.55
2018-12-10T09:25:41.767Z,6.56
2018-12-10T09:28:09.232Z,6.60
2018-12-10T09:30:36.712Z,6.48
2018-12-10T09:33:04.198Z,6.64
2018-12-10T09:35:31.671Z,6.85
2018-12-10T09:37:59.136Z,6.82
2018-12-10T09:40:27.514Z,6.82
2018-12-10T09:42:54.986Z,6.95
2018-12-10T09:45:22.431Z,7.15
2018-12-10T09:47:49.911Z,7.39
2018-12-10T09:50:17.354Z,7.29
2018-12-10T09:52:44.860Z,7.06
2018-12-10T09:55:12.305Z,6.93
2018-12-10T09:57:39.873Z,6.77
2018-12-10T10:00:09.747Z,6.66
2018-12-10T10:02:37.594Z,6.68
2018-12-10T10:05:05.291Z,6.57
2018-12-10T10:07:32.761Z,6.54
2018-12-10T10:10:00.252Z,6.54
2018-12-10T10:12:27.707Z,6.50
2018-12-10T10:14:55.159Z,6.61
2018-12-10T10:17:22.681Z,6.63
2018-12-10T10:19:50.150Z,6.80
2018-12-10T10:22:17.607Z,7.09
2018-12-10T10:24:45.070Z,6.96
2018-12-10T10:27:12.572Z,6.74
2018-12-10T10:29:40.020Z,6.45
2018-12-10T10:32:07.523Z,6.28
2018-12-10T10:34:34.965Z,6.17
2018-12-10T10:37:02.422Z,6.22
2018-12-10T10:39:29.906Z,6.28
2018-12-10T10:41:57.498Z,6.31
2018-12-10T10:44:25.080Z,6.32
2018-12-10T10:46:53.056Z,6.40
2018-12-10T10:49:20.556Z,6.55
2018-12-10T10:51:48.033Z,6.65
2018-12-10T10:54:15.486Z,6.84
2018-12-10T10:56:43.089Z,7.15
2018-12-10T10:59:10.569Z,7.42
2018-12-10T11:01:43.750Z,7.16
2018-12-10T11:04:11.246Z,6.95
2018-12-10T11:06:39.331Z,6.75
2018-12-10T11:09:15.026Z,6.70
2018-12-10T11:11:36.421Z,6.72
2018-12-10T11:14:04.195Z,6.79
2018-12-10T11:16:31.779Z,6.81
2018-12-10T11:18:59.244Z,6.85
2018-12-10T11:21:26.678Z,6.92
2018-12-10T11:23:54.171Z,6.98
2018-12-10T11:26:21.631Z,7.08
2018-12-10T11:28:49.213Z,7.19
2018-12-10T11:31:17.386Z,7.29
2018-12-10T11:33:45.049Z,7.67
2018-12-10T11:36:12.476Z,7.51
2018-12-10T11:38:39.974Z,7.27
2018-12-10T11:41:07.425Z,6.98
2018-12-10T11:43:35.849Z,6.94
2018-12-10T11:46:03.445Z,6.70
2018-12-10T11:48:30.891Z,6.77
2018-12-10T11:50:58.363Z,6.75
2018-12-10T11:53:25.868Z,6.88
2018-12-10T11:55:53.319Z,6.98
2018-12-10T11:58:20.782Z,7.02
2018-12-10T12:00:48.243Z,7.03
2018-12-10T12:03:15.701Z,7.07
2018-12-10T12:05:43.238Z,7.27
2018-12-10T12:08:10.729Z,7.68
2018-12-10T12:10:38.168Z,7.70
2018-12-10T12:13:05.605Z,7.45
2018-12-10T12:15:33.075Z,7.28
2018-12-10T12:18:00.533Z,7.00
2018-12-10T12:20:28.041Z,6.67
2018-12-10T12:22:55.494Z,6.68
2018-12-10T12:25:22.955Z,6.59
2018-12-10T12:27:50.473Z,6.49
2018-12-10T12:30:17.918Z,6.54
2018-12-10T12:32:45.388Z,6.57
2018-12-10T12:35:12.935Z,6.58
2018-12-10T12:37:40.443Z,6.57
2018-12-10T12:40:08.054Z,6.69
2018-12-10T12:42:35.545Z,6.89
2018-12-10T12:45:03.964Z,7.33
2018-12-10T12:47:31.464Z,7.23
2018-12-10T12:49:58.967Z,6.93
2018-12-10T12:52:26.513Z,6.87
2018-12-10T12:54:54.003Z,6.82
2018-12-10T12:57:21.425Z,6.89
2018-12-10T12:59:48.910Z,6.83
2018-12-10T13:02:16.388Z,6.75
2018-12-10T13:04:43.848Z,6.95
2018-12-10T13:07:11.335Z,7.13
2018-12-10T13:09:39.788Z,7.05
2018-12-10T13:12:07.337Z,7.17
2018-12-10T13:14:34.903Z,7.29
2018-12-10T13:17:02.395Z,7.51
2018-12-10T13:19:29.875Z,7.90
2018-12-10T13:21:57.509Z,7.71
2018-12-10T13:24:25.083Z,7.28
2018-12-10T13:26:52.523Z,7.09
2018-12-10T13:29:19.956Z,6.80
2018-12-10T13:31:47.420Z,6.67
2018-12-10T13:34:14.868Z,6.47
2018-12-10T13:36:42.363Z,6.60
2018-12-10T13:39:09.989Z,6.81
2018-12-10T13:41:37.429Z,7.01
2018-12-10T13:44:04.940Z,7.28
2018-12-10T13:46:32.527Z,7.44
2018-12-10T13:48:59.982Z,7.43
2018-12-10T13:51:27.469Z,7.38
2018-12-10T13:53:54.926Z,7.49
2018-12-10T13:56:22.405Z,7.67
2018-12-10T13:58:49.870Z,7.36
2018-12-10T14:01:17.385Z,7.10
2018-12-10T14:03:45.643Z,6.86
2018-12-10T14:06:13.123Z,6.66
2018-12-10T14:08:40.586Z,6.67
2018-12-10T14:11:08.129Z,7.00
2018-12-10T14:13:35.644Z,7.21
2018-12-10T14:16:03.130Z,7.21
2018-12-10T14:18:30.833Z,7.26
2018-12-10T14:20:58.308Z,7.31
2018-12-10T14:23:25.762Z,7.12
2018-12-10T14:25:53.244Z,7.20
2018-12-10T14:28:20.698Z,7.36
2018-12-10T14:30:48.291Z,7.86
2018-12-10T14:33:15.851Z,7.72
2018-12-10T14:35:43.301Z,7.45
2018-12-10T14:38:10.796Z,7.19
2018-12-10T14:40:38.527Z,6.89
2018-12-10T14:43:06.086Z,6.66
2018-12-10T14:45:33.568Z,6.48
2018-12-10T14:48:01.011Z,6.39
2018-12-10T14:50:28.692Z,6.44
2018-12-10T14:52:56.145Z,6.44
2018-12-10T14:55:23.614Z,6.44
2018-12-10T14:57:51.094Z,6.63
2018-12-10T15:00:18.615Z,6.77
2018-12-10T15:02:46.097Z,6.80
2018-12-10T15:05:13.668Z,6.97
2018-12-10T15:07:41.155Z,7.13
2018-12-10T15:10:08.895Z,6.88
2018-12-10T15:12:36.388Z,6.64
2018-12-10T15:15:05.148Z,6.60
2018-12-10T15:17:32.605Z,6.53
2018-12-10T15:20:00.182Z,6.35
2018-12-10T15:22:27.660Z,6.41
2018-12-10T15:24:55.167Z,6.47
2018-12-10T15:27:22.628Z,6.46
2018-12-10T15:29:50.125Z,6.65
2018-12-10T15:32:17.574Z,6.75
2018-12-10T15:34:45.015Z,6.87
2018-12-10T15:37:12.507Z,7.02
2018-12-10T15:39:40.270Z,7.17
2018-12-10T15:42:07.798Z,7.33
2018-12-10T15:44:35.250Z,7.11
2018-12-10T15:47:02.821Z,6.74
2018-12-10T15:49:30.325Z,6.55
2018-12-10T15:51:57.770Z,6.49
2018-12-10T15:54:25.257Z,6.29
2018-12-10T15:56:52.738Z,6.33
2018-12-10T15:59:20.216Z,6.31
2018-12-10T16:01:47.659Z,6.23
2018-12-10T16:04:15.160Z,6.37
2018-12-10T16:06:42.645Z,6.41
2018-12-10T16:09:10.535Z,6.56
2018-12-10T16:11:38.010Z,6.70
2018-12-10T16:14:05.462Z,6.81
2018-12-10T16:16:32.994Z,6.88
2018-12-10T16:19:00.471Z,6.95
2018-12-10T16:21:28.025Z,6.77
2018-12-10T16:23:55.521Z,6.30
2018-12-10T16:26:22.983Z,5.99
2018-12-10T16:28:50.475Z,5.79
2018-12-10T16:31:17.956Z,5.62
2018-12-10T16:33:45.415Z,5.57
2018-12-10T16:36:13.410Z,5.64
2018-12-10T16:38:40.913Z,5.62
2018-12-10T16:41:08.396Z,5.69
2018-12-10T16:43:35.839Z,5.95
2018-12-10T16:46:03.330Z,6.03
2018-12-10T16:48:30.761Z,6.05
2018-12-10T16:50:58.265Z,6.22
2018-12-10T16:53:25.815Z,6.37
2018-12-10T16:55:53.313Z,6.26
2018-12-10T16:58:20.760Z,6.09
2018-12-10T17:00:48.364Z,5.72
2018-12-10T17:03:15.822Z,5.56
2018-12-10T17:05:43.322Z,5.34
2018-12-10T17:08:10.868Z,5.23
2018-12-10T17:10:38.326Z,5.24
2018-12-10T17:13:05.801Z,5.23
2018-12-10T17:15:33.391Z,5.12
2018-12-10T17:18:00.862Z,5.06
2018-12-10T17:20:28.584Z,5.16
2018-12-10T17:22:56.074Z,5.24
2018-12-10T17:25:23.544Z,5.44
2018-12-10T17:27:51.104Z,5.78
2018-12-10T17:30:18.568Z,5.96
2018-12-10T17:32:46.132Z,5.53
2018-12-10T17:35:13.607Z,5.31
2018-12-10T17:37:41.069Z,5.03
2018-12-10T17:40:08.660Z,4.96
2018-12-10T17:42:36.214Z,4.98
2018-12-10T17:45:05.638Z,5.19
2018-12-10T17:47:33.144Z,5.34
2018-12-10T17:50:00.929Z,5.44
2018-12-10T17:52:28.386Z,5.51
2018-12-10T17:54:55.876Z,5.54
2018-12-10T17:57:23.292Z,5.41
2018-12-10T17:59:50.779Z,5.55
2018-12-10T18:02:18.248Z,5.74
2018-12-10T18:04:45.704Z,5.92
2018-12-10T18:07:13.444Z,5.56
2018-12-10T18:09:41.136Z,5.25
2018-12-10T18:12:08.969Z,5.15
2018-12-10T18:14:36.449Z,4.79
2018-12-10T18:17:03.950Z,4.75
2018-12-10T18:19:31.410Z,4.85
2018-12-10T18:21:58.880Z,4.95
2018-12-10T18:24:26.386Z,5.12
2018-12-10T18:26:53.860Z,5.10
2018-12-10T18:29:21.360Z,5.19
2018-12-10T18:31:48.814Z,5.28
2018-12-10T18:34:16.846Z,5.35
2018-12-10T18:36:44.289Z,5.63
2018-12-10T18:39:11.844Z,5.96
2018-12-10T18:41:39.310Z,5.90
2018-12-10T18:44:06.755Z,5.59
2018-12-10T18:46:34.256Z,5.28
2018-12-10T18:49:01.715Z,4.90
2018-12-10T18:51:29.269Z,4.67
2018-12-10T18:53:56.775Z,4.61
2018-12-10T18:56:24.280Z,4.52
2018-12-10T18:58:51.729Z,4.62
2018-12-10T19:01:19.223Z,4.58
2018-12-10T19:03:46.688Z,4.76
2018-12-10T19:06:14.131Z,4.85
2018-12-10T19:08:41.644Z,5.05
2018-12-10T19:11:09.516Z,5.34
2018-12-10T19:13:36.990Z,5.65
2018-12-10T19:16:04.982Z,5.83
2018-12-10T19:18:32.469Z,5.56
2018-12-10T19:20:59.950Z,5.40
2018-12-10T19:23:28.255Z,5.14
2018-12-10T19:25:55.803Z,4.94
2018-12-10T19:28:23.290Z,4.97
2018-12-10T19:30:50.764Z,5.07
2018-12-10T19:33:18.215Z,5.21
2018-12-10T19:35:45.709Z,5.46
2018-12-10T19:38:13.175Z,5.47
2018-12-10T19:40:41.302Z,5.54
2018-12-10T19:43:08.741Z,5.62
2018-12-10T19:45:36.261Z,5.74
2018-12-10T19:48:03.864Z,5.96
2018-12-10T19:50:31.349Z,6.32
2018-12-10T19:52:58.930Z,6.24
2018-12-10T19:55:26.475Z,5.82
2018-12-10T19:57:53.952Z,5.45
2018-12-10T20:00:21.495Z,5.23
2018-12-10T20:02:49.093Z,5.07
2018-12-10T20:05:16.593Z,5.09
2018-12-10T20:07:44.056Z,5.03
2018-12-10T20:10:11.544Z,5.01
2018-12-10T20:12:39.005Z,4.89
2018-12-10T20:15:08.008Z,5.20
2018-12-10T20:17:35.508Z,5.27
2018-12-10T20:20:03.716Z,5.42
2018-12-10T20:22:31.190Z,5.57
2018-12-10T20:24:58.649Z,5.93
2018-12-10T20:27:26.141Z,6.07
2018-12-10T20:29:53.634Z,5.85
2018-12-10T20:32:21.133Z,5.49
2018-12-10T20:34:48.754Z,5.35
2018-12-10T20:37:16.335Z,5.34
2018-12-10T20:39:43.811Z,5.20
2018-12-10T20:42:11.535Z,5.22
2018-12-10T20:44:38.986Z,5.14
2018-12-10T20:47:06.464Z,5.23
2018-12-10T20:49:33.911Z,5.35
2018-12-10T20:52:01.426Z,5.43
2018-12-10T20:54:28.881Z,5.55
2018-12-10T20:56:56.341Z,5.73
2018-12-10T20:59:23.897Z,5.85
2018-12-10T21:01:51.425Z,6.08
2018-12-10T21:04:19.731Z,5.96
2018-12-10T21:06:47.219Z,5.56
2018-12-10T21:09:14.871Z,5.30
2018-12-10T21:11:42.350Z,5.05
2018-12-10T21:14:09.819Z,4.98
2018-12-10T21:16:37.359Z,5.09
2018-12-10T21:19:04.840Z,5.14
2018-12-10T21:21:32.350Z,5.19
2018-12-10T21:23:59.830Z,5.34
2018-12-10T21:26:27.429Z,5.46
2018-12-10T21:28:54.979Z,5.61
2018-12-10T21:31:22.463Z,5.60
2018-12-10T21:33:49.951Z,5.80
2018-12-10T21:36:17.422Z,6.12
2018-12-10T21:38:45.576Z,6.13
2018-12-10T21:41:13.304Z,5.78
2018-12-10T21:43:41.663Z,5.38
2018-12-10T21:46:09.148Z,5.15
2018-12-10T21:48:36.593Z,5.03
2018-12-10T21:51:04.166Z,4.93
2018-12-10T21:53:31.691Z,4.99
2018-12-10T21:58:34.270Z,5.21
2018-12-10T22:01:01.713Z,5.37
2018-12-10T22:03:29.220Z,5.53
2018-12-10T22:05:56.805Z,5.62
2018-12-10T22:08:24.281Z,5.67
2018-12-10T22:10:51.916Z,5.73
2018-12-10T22:13:19.393Z,6.03
2018-12-10T22:15:47.684Z,5.84
2018-12-10T22:18:15.158Z,5.42
2018-12-10T22:20:42.619Z,5.05
2018-12-10T22:23:10.105Z,4.83
2018-12-10T22:25:37.600Z,4.74
2018-12-10T22:28:05.095Z,4.99
2018-12-10T22:30:32.558Z,5.09
2018-12-10T22:33:00.114Z,5.10
2018-12-10T22:35:27.568Z,5.23
2018-12-10T22:37:55.026Z,5.24
2018-12-10T22:40:22.502Z,5.30
2018-12-10T22:42:49.960Z,5.39
2018-12-10T22:45:17.427Z,5.43
2018-12-10T22:47:44.911Z,5.70
2018-12-10T22:50:12.374Z,5.74
2018-12-10T22:52:39.823Z,5.45
2018-12-10T22:55:07.420Z,5.29
2018-12-10T22:57:34.875Z,4.88
2018-12-10T23:00:02.334Z,4.77
2018-12-10T23:02:29.830Z,4.89
2018-12-10T23:04:57.313Z,4.95
2018-12-10T23:07:24.835Z,5.09
2018-12-10T23:09:52.355Z,5.16
2018-12-10T23:12:19.828Z,5.24
2018-12-10T23:14:47.279Z,5.32
2018-12-10T23:17:14.738Z,5.43
2018-12-10T23:19:42.204Z,5.44
2018-12-10T23:22:09.687Z,5.61
2018-12-10T23:24:37.183Z,5.93
2018-12-10T23:27:04.714Z,5.70
2018-12-10T23:29:32.167Z,5.58
2018-12-10T23:31:59.624Z,5.49
2018-12-10T23:34:27.086Z,5.19
2018-12-10T23:36:54.582Z,4.95
2018-12-10T23:39:22.067Z,4.82
2018-12-10T23:41:49.523Z,5.00
2018-12-10T23:44:22.672Z,4.98
2018-12-10T23:46:50.142Z,5.03
2018-12-10T23:49:17.613Z,5.07
2018-12-10T23:51:45.068Z,5.20
2018-12-10T23:54:12.547Z,5.16
2018-12-10T23:56:40.025Z,5.29
2018-12-10T23:59:07.494Z,5.59
